Time;durP1;ratioP1;P1;durP2;ratioP2;P2;SDS_P1;SDS_P2;PMS_P1;PMS_P2;Temp;Humidity;BMP_temperature;BMP_pressure;BME280_temperature;BME280_humidity;BME280_pressure;Samples;Min_cycle;Max_cycle;Signal;HPM_P1;HPM_P2
2023/06/08 00:01:28;;;;;;;10.05;4.57;;;;;;;16.24;100.00;98391.88;5160789;27;20336;-61
2023/06/08 00:03:55;;;;;;;5.28;4.30;;;;;;;16.18;100.00;98380.50;5161174;27;20133;-56
2023/06/08 00:06:22;;;;;;;9.48;4.43;;;;;;;16.11;100.00;98383.38;5160973;27;20047;-64
2023/06/08 00:08:49;;;;;;;7.28;4.60;;;;;;;16.08;100.00;98387.00;5160798;27;20142;-61
2023/06/08 00:11:15;;;;;;;8.90;4.13;;;;;;;16.07;100.00;98382.69;5160663;27;20043;-59
2023/06/08 00:13:41;;;;;;;6.75;4.20;;;;;;;16.07;100.00;98381.91;5160481;27;20046;-61
2023/06/08 00:16:07;;;;;;;5.82;4.25;;;;;;;16.04;100.00;98386.28;5160486;27;20141;-64
2023/06/08 00:18:36;;;;;;;12.20;5.60;;;;;;;15.98;100.00;98397.03;5160469;27;20051;-67
2023/06/08 00:21:02;;;;;;;8.57;4.72;;;;;;;15.98;100.00;98399.78;5160972;27;20085;-62
2023/06/08 00:23:28;;;;;;;9.10;4.22;;;;;;;15.92;100.00;98401.47;5160475;27;20050;-61
2023/06/08 00:25:54;;;;;;;7.72;4.40;;;;;;;15.87;100.00;98412.22;5160831;27;20069;-61
2023/06/08 00:28:22;;;;;;;5.30;4.07;;;;;;;15.74;100.00;98429.38;5160357;27;20054;-62
2023/06/08 00:30:48;;;;;;;5.85;4.28;;;;;;;15.73;100.00;98447.16;5160813;27;20146;-66
2023/06/08 00:33:14;;;;;;;5.80;4.10;;;;;;;15.68;100.00;98447.63;5160174;27;20055;-69
2023/06/08 00:35:40;;;;;;;8.13;3.83;;;;;;;15.74;100.00;98461.75;5160380;27;20051;-67
2023/06/08 00:38:06;;;;;;;7.78;4.53;;;;;;;15.87;100.00;98431.56;5160150;27;20289;-55
2023/06/08 00:40:32;;;;;;;4.72;4.18;;;;;;;15.80;100.00;98415.88;5160297;27;20049;-55
2023/06/08 00:42:59;;;;;;;7.20;4.22;;;;;;;15.75;100.00;98413.59;5160461;27;20047;-57
2023/06/08 00:45:25;;;;;;;6.82;3.60;;;;;;;15.65;100.00;98439.34;5160398;27;20054;-57
2023/06/08 00:47:51;;;;;;;7.80;5.88;;;;;;;15.57;100.00;98443.44;5160204;27;20475;-61
2023/06/08 00:50:17;;;;;;;8.18;5.80;;;;;;;15.56;100.00;98461.19;5160057;27;20054;-56
2023/06/08 00:52:44;;;;;;;15.52;4.72;;;;;;;15.59;100.00;98468.66;5160183;27;20412;-64
2023/06/08 00:55:10;;;;;;;12.10;4.32;;;;;;;15.54;100.00;98465.16;5159935;27;20051;-61
2023/06/08 00:57:38;;;;;;;7.22;4.00;;;;;;;15.47;100.00;98476.31;5160192;27;20375;-62
2023/06/08 01:00:10;;;;;;;9.23;5.57;;;;;;;15.44;100.00;98482.66;5159756;27;20145;-64
2023/06/08 01:02:36;;;;;;;8.10;5.70;;;;;;;15.40;100.00;98497.72;5159719;27;20413;-66
2023/06/08 01:05:03;;;;;;;9.75;4.53;;;;;;;15.44;100.00;98499.22;5159746;27;20050;-55
2023/06/08 01:07:40;;;;;;;5.70;4.15;;;;;;;15.45;100.00;98513.81;5159508;27;20107;-55
2023/06/08 01:10:15;;;;;;;8.85;4.35;;;;;;;15.43;100.00;98496.88;5160055;27;20054;-58
2023/06/08 01:12:49;;;;;;;6.85;4.07;;;;;;;15.43;100.00;98507.94;5159673;27;20056;-64
2023/06/08 01:15:23;;;;;;;4.43;3.83;;;;;;;15.39;100.00;98487.84;5160021;27;20319;-61
2023/06/08 01:17:57;;;;;;;6.05;4.40;;;;;;;15.45;100.00;98492.50;5159472;27;20050;-66
2023/06/08 01:20:42;;;;;;;6.78;4.45;;;;;;;15.40;100.00;98492.19;5159890;27;20400;-61
2023/06/08 01:23:25;;;;;;;8.32;4.60;;;;;;;15.37;100.00;98488.28;5159601;27;20054;-62
2023/06/08 01:25:56;;;;;;;7.05;4.35;;;;;;;15.33;100.00;98512.38;5159378;27;20404;-57
2023/06/08 01:28:22;;;;;;;7.35;3.80;;;;;;;15.19;100.00;98549.22;5158896;27;20046;-66
2023/06/08 01:30:49;;;;;;;9.57;4.50;;;;;;;15.27;100.00;98530.59;5159291;27;20416;-63
2023/06/08 01:33:17;;;;;;;12.40;4.15;;;;;;;15.36;100.00;98525.38;5159747;27;20057;-67
2023/06/08 01:35:46;;;;;;;8.52;3.95;;;;;;;15.48;100.00;98496.41;5159187;27;20412;-61
2023/06/08 01:38:21;;;;;;;8.70;3.97;;;;;;;15.46;100.00;98473.94;5159531;27;20408;-61
2023/06/08 01:40:50;;;;;;;6.35;3.97;;;;;;;15.46;100.00;98466.47;5159079;27;20336;-55
2023/06/08 01:43:18;;;;;;;7.88;3.88;;;;;;;15.47;100.00;98478.28;5159361;27;20328;-57
2023/06/08 01:45:49;;;;;;;8.25;4.30;;;;;;;15.42;100.00;98462.16;5159307;27;20306;-65
2023/06/08 01:48:18;;;;;;;10.15;4.32;;;;;;;15.50;100.00;98450.63;5159159;27;20050;-65
2023/06/08 01:50:44;;;;;;;10.30;3.90;;;;;;;15.47;100.00;98448.69;5159092;27;20410;-60
2023/06/08 01:53:11;;;;;;;5.22;3.78;;;;;;;15.42;100.00;98456.63;5159397;27;20046;-55
2023/06/08 01:55:37;;;;;;;12.15;3.70;;;;;;;15.35;100.00;98479.59;5159899;27;20058;-68
2023/06/08 01:58:03;;;;;;;7.63;4.20;;;;;;;15.37;100.00;98488.28;5159342;27;20085;-57
2023/06/08 02:00:30;;;;;;;6.35;3.90;;;;;;;15.42;100.00;98476.75;5159766;27;20050;-57
2023/06/08 02:02:55;;;;;;;6.50;3.67;;;;;;;15.37;100.00;98468.16;5159070;27;20047;-63
2023/06/08 02:05:21;;;;;;;6.60;4.07;;;;;;;15.31;100.00;98495.44;5159304;27;20046;-66
2023/06/08 02:07:47;;;;;;;7.18;4.13;;;;;;;15.35;100.00;98501.69;5158811;27;20206;-66
2023/06/08 02:10:14;;;;;;;6.78;4.00;;;;;;;15.33;100.00;98506.06;5158852;27;20078;-61
2023/06/08 02:12:40;;;;;;;7.88;3.85;;;;;;;15.36;100.00;98508.00;5158937;27;20365;-66
2023/06/08 02:15:07;;;;;;;6.93;4.40;;;;;;;15.40;100.00;98509.53;5158465;27;20057;-61
2023/06/08 02:17:35;;;;;;;5.00;3.97;;;;;;;15.40;100.00;98506.00;5158905;27;20141;-65
2023/06/08 02:20:06;;;;;;;8.60;3.95;;;;;;;15.48;100.00;98501.94;5158431;27;20047;-62
2023/06/08 02:22:32;;;;;;;5.88;3.83;;;;;;;15.56;100.00;98470.28;5159121;27;20070;-55
2023/06/08 02:24:58;;;;;;;5.30;3.50;;;;;;;15.87;100.00;98460.00;5158502;27;20046;-59
2023/06/08 02:27:24;;;;;;;5.47;3.75;;;;;;;16.06;100.00;98407.97;5158890;27;20060;-58
2023/06/08 02:29:50;;;;;;;4.80;4.32;;;;;;;16.52;100.00;98356.59;5158256;27;20104;-57
2023/06/08 02:32:16;;;;;;;14.15;3.95;;;;;;;16.80;100.00;98324.84;5158723;27;20137;-57
2023/06/08 02:34:55;;;;;;;5.82;4.55;;;;;;;17.13;100.00;98322.94;5158167;27;20058;-66
2023/06/08 02:37:21;;;;;;;4.88;3.40;;;;;;;17.38;100.00;98336.22;5158570;27;20062;-63
2023/06/08 02:39:47;;;;;;;10.93;4.38;;;;;;;17.58;100.00;98372.19;5158471;27;20046;-64
2023/06/08 02:42:13;;;;;;;5.22;3.20;;;;;;;17.82;100.00;98398.56;5158126;27;20398;-67
2023/06/08 02:44:39;;;;;;;7.93;4.35;;;;;;;18.11;100.00;98440.28;5158356;27;20062;-65
2023/06/08 02:47:06;;;;;;;4.43;3.05;;;;;;;18.37;100.00;98492.41;5158257;27;20061;-56
2023/06/08 02:49:32;;;;;;;11.38;4.13;;;;;;;18.77;100.00;98535.41;5158892;27;20133;-68
2023/06/08 02:51:58;;;;;;;6.82;2.85;;;;;;;18.83;100.00;98568.19;5158017;27;20408;-65
2023/06/08 02:54:24;;;;;;;8.23;3.63;;;;;;;19.09;100.00;98608.03;5158412;27;20042;-66
2023/06/08 02:56:50;;;;;;;6.93;3.13;;;;;;;19.24;100.00;98662.03;5157963;27;20054;-68
2023/06/08 02:59:16;;;;;;;4.80;3.17;;;;;;;19.58;100.00;98689.34;5158314;27;20365;-56
2023/06/08 03:01:53;;;;;;;9.45;3.35;;;;;;;18.95;100.00;98673.81;5157795;27;20078;-56
2023/06/08 03:04:19;;;;;;;5.72;3.20;;;;;;;18.61;100.00;98626.22;5157839;27;20187;-67
2023/06/08 03:06:46;;;;;;;8.73;3.53;;;;;;;18.44;100.00;98583.81;5158292;27;20188;-67
2023/06/08 03:09:13;;;;;;;4.38;3.08;;;;;;;18.33;100.00;98559.84;5157798;27;20057;-57
2023/06/08 03:11:39;;;;;;;5.55;3.13;;;;;;;18.21;100.00;98538.31;5158127;27;20050;-58
2023/06/08 03:14:05;;;;;;;11.93;3.03;;;;;;;18.12;100.00;98524.25;5157875;27;20065;-61
2023/06/08 03:16:31;;;;;;;5.43;3.45;;;;;;;17.95;100.00;98497.72;5158090;27;20046;-67
2023/06/08 03:18:57;;;;;;;4.57;3.15;;;;;;;18.02;100.00;98503.09;5157791;27;20336;-59
2023/06/08 03:21:28;;;;;;;4.30;2.88;;;;;;;18.00;100.00;98492.44;5158064;27;20108;-63
2023/06/08 03:23:54;;;;;;;6.97;4.18;;;;;;;18.54;100.00;98525.25;5157748;27;20060;-58
2023/06/08 03:26:21;;;;;;;6.93;3.38;;;;;;;19.00;100.00;98612.22;5158083;27;20054;-63
2023/06/08 03:28:47;;;;;;;11.40;3.50;;;;;;;19.41;100.00;98701.69;5157443;27;20062;-64
2023/06/08 03:31:13;;;;;;;5.57;3.00;;;;;;;19.51;100.00;98736.78;5157644;27;20061;-56
2023/06/08 03:33:39;;;;;;;8.23;3.70;;;;;;;19.76;100.00;98744.53;5157795;27;20078;-61
2023/06/08 03:36:06;;;;;;;4.70;3.10;;;;;;;20.35;100.00;98784.28;5157586;27;20092;-61
2023/06/08 03:38:32;;;;;;;4.07;2.70;;;;;;;20.83;100.00;98866.13;5157541;27;20066;-65
2023/06/08 03:40:58;;;;;;;5.60;2.92;;;;;;;21.49;100.00;98912.00;5157596;27;20061;-58
2023/06/08 03:43:24;;;;;;;3.63;2.75;;;;;;;21.71;100.00;98947.59;5157728;27;20074;-57
2023/06/08 03:45:50;;;;;;;5.70;2.95;;;;;;;22.18;100.00;98981.19;5157315;27;20053;-56
2023/06/08 03:48:16;;;;;;;4.30;2.80;;;;;;;22.43;100.00;99011.13;5157784;27;20143;-57
2023/06/08 03:50:43;;;;;;;4.72;2.70;;;;;;;22.85;100.00;99038.84;5157338;27;20053;-58
2023/06/08 03:53:10;;;;;;;8.80;3.53;;;;;;;23.30;100.00;99057.28;5160760;27;20050;-61
2023/06/08 03:55:36;;;;;;;5.20;2.47;;;;;;;22.87;100.00;99067.13;5160822;27;20050;-57
2023/06/08 03:58:02;;;;;;;8.68;3.90;;;;;;;22.29;100.00;99040.28;5161212;27;20057;-64
2023/06/08 04:00:29;;;;;;;4.80;3.75;;;;;;;21.58;100.00;99009.72;5160788;27;20411;-66
2023/06/08 04:02:55;;;;;;;4.32;3.40;;;;;;;21.27;100.00;98986.31;5160950;27;20077;-59
2023/06/08 04:05:21;;;;;;;6.43;3.65;;;;;;;21.03;100.00;98969.06;5160627;27;20053;-58
2023/06/08 04:07:50;;;;;;;6.78;3.47;;;;;;;21.23;100.00;98969.69;5160861;27;20137;-65
2023/06/08 04:10:16;;;;;;;4.05;2.60;;;;;;;21.19;100.00;98974.56;5161610;27;20058;-61
2023/06/08 04:12:43;;;;;;;6.78;3.03;;;;;;;21.54;100.00;98970.00;5164277;27;20137;-63
2023/06/08 04:15:10;;;;;;;5.30;2.83;;;;;;;21.19;100.00;98974.56;5162755;27;20056;-62
2023/06/08 04:17:40;;;;;;;5.43;3.03;;;;;;;21.31;100.00;98979.41;5160428;27;20462;-66
2023/06/08 04:20:07;;;;;;;5.85;2.58;;;;;;;21.44;100.00;98987.03;5160912;27;20425;-57
2023/06/08 04:22:33;;;;;;;3.53;2.90;;;;;;;22.19;100.00;99015.47;5160382;27;20050;-58
2023/06/08 04:25:00;;;;;;;5.22;2.67;;;;;;;22.80;100.00;99053.41;5160878;27;20153;-57
2023/06/08 04:27:26;;;;;;;3.05;2.67;;;;;;;23.44;100.00;99087.53;5160616;27;20051;-59
2023/06/08 04:29:52;;;;;;;2.88;2.65;;;;;;;23.46;100.00;99087.09;5160518;27;20343;-56
2023/06/08 04:32:18;;;;;;;5.47;3.40;;;;;;;23.54;100.00;99090.41;5160737;27;20047;-62
2023/06/08 04:34:45;;;;;;;5.55;3.72;;;;;;;24.02;100.00;99105.06;5160491;27;20469;-59
2023/06/08 04:37:11;;;;;;;3.55;2.67;;;;;;;24.18;100.00;99113.25;5160137;27;20050;-67
2023/06/08 04:39:38;;;;;;;3.08;2.50;;;;;;;24.97;100.00;99124.16;5160314;27;20146;-59
2023/06/08 04:42:05;;;;;;;7.65;4.07;;;;;;;25.43;95.21;99129.88;5160448;27;20047;-65
2023/06/08 04:44:32;;;;;;;4.90;3.42;;;;;;;25.85;91.72;99137.66;5160154;27;20439;-66
2023/06/08 04:46:58;;;;;;;6.75;3.53;;;;;;;26.11;87.08;99140.88;5160728;27;20198;-67
2023/06/08 04:49:31;;;;;;;6.20;3.35;;;;;;;26.18;87.15;99143.38;5160224;27;20408;-66
2023/06/08 04:51:58;;;;;;;6.40;2.75;;;;;;;26.54;84.34;99147.34;5160440;27;20043;-67
2023/06/08 04:54:25;;;;;;;7.78;4.80;;;;;;;26.68;82.13;99149.47;5160309;27;20069;-63
2023/06/08 04:56:53;;;;;;;3.88;3.28;;;;;;;27.05;80.66;99158.50;5159830;27;20058;-71
2023/06/08 04:59:19;;;;;;;8.95;3.17;;;;;;;27.37;79.42;99156.13;5159193;27;20368;-66
2023/06/08 05:01:45;;;;;;;8.00;3.60;;;;;;;27.26;79.24;99159.50;5159504;27;20111;-64
2023/06/08 05:04:11;;;;;;;7.05;3.33;;;;;;;27.80;75.48;99168.03;5158274;27;20369;-58
2023/06/08 05:06:37;;;;;;;7.40;2.80;;;;;;;27.77;74.94;99169.00;5159433;27;20404;-57
2023/06/08 05:09:03;;;;;;;6.55;3.38;;;;;;;28.11;73.89;99170.38;5159443;27;20439;-60
2023/06/08 05:11:29;;;;;;;9.60;3.53;;;;;;;28.23;71.51;99169.31;5159284;27;20493;-60
2023/06/08 05:13:55;;;;;;;4.78;2.70;;;;;;;28.12;71.71;99171.94;5159120;27;20133;-60
2023/06/08 05:16:21;;;;;;;6.88;3.35;;;;;;;28.34;71.51;99171.56;5159235;27;20111;-61
2023/06/08 05:18:47;;;;;;;10.65;4.13;;;;;;;28.30;72.64;99165.34;5159103;27;20043;-63
2023/06/08 05:21:13;;;;;;;8.32;3.38;;;;;;;28.60;71.57;99164.06;5158793;27;20050;-57
2023/06/08 05:23:39;;;;;;;5.22;2.85;;;;;;;28.80;68.90;99174.63;5159302;27;20073;-55
2023/06/08 05:26:06;;;;;;;6.28;3.22;;;;;;;28.91;68.19;99173.25;5158882;27;20057;-62
2023/06/08 05:28:32;;;;;;;9.27;4.05;;;;;;;28.88;69.18;99180.63;5159213;27;20143;-58
2023/06/08 05:30:58;;;;;;;10.45;4.15;;;;;;;29.08;68.56;99183.53;5159433;27;20294;-53
2023/06/08 05:33:24;;;;;;;7.75;3.78;;;;;;;29.10;67.51;99182.28;5158873;27;20043;-65
2023/06/08 05:35:50;;;;;;;9.18;3.10;;;;;;;28.94;67.84;99180.72;5159056;27;20138;-61
2023/06/08 05:38:16;;;;;;;7.03;3.08;;;;;;;28.97;68.26;99186.16;5158845;27;20051;-59
2023/06/08 05:40:42;;;;;;;6.60;3.20;;;;;;;29.29;66.99;99187.16;5159220;27;20360;-59
2023/06/08 05:43:09;;;;;;;5.82;3.00;;;;;;;29.44;65.55;99189.91;5158743;27;20047;-59
2023/06/08 05:45:35;;;;;;;5.15;3.22;;;;;;;29.78;66.29;99187.53;5159197;27;20133;-56
2023/06/08 05:48:01;;;;;;;7.18;3.53;;;;;;;29.92;64.42;99185.88;5158779;27;20462;-56
2023/06/08 05:50:27;;;;;;;7.80;3.40;;;;;;;30.19;64.13;99184.63;5159243;27;20050;-60
2023/06/08 05:52:53;;;;;;;6.07;4.13;;;;;;;30.17;64.24;99185.09;5158872;27;20133;-65
2023/06/08 05:55:19;;;;;;;5.30;3.53;;;;;;;30.32;63.14;99187.84;5158532;27;20050;-66
2023/06/08 05:57:45;;;;;;;5.28;3.05;;;;;;;30.22;63.37;99198.56;5158845;27;20083;-61
2023/06/08 06:00:13;;;;;;;7.30;3.88;;;;;;;30.23;62.68;99193.69;5158697;27;20050;-55
2023/06/08 06:02:40;;;;;;;5.15;3.00;;;;;;;29.98;63.20;99187.47;5158456;27;20087;-57
2023/06/08 06:05:08;;;;;;;7.03;3.13;;;;;;;30.27;62.78;99193.47;5158546;27;20055;-60
2023/06/08 06:07:34;;;;;;;6.15;3.78;;;;;;;30.42;62.95;99191.25;5158771;27;20050;-55
2023/06/08 06:10:00;;;;;;;6.10;3.65;;;;;;;30.90;62.27;99193.47;5158325;27;20335;-64
2023/06/08 06:12:26;;;;;;;4.35;3.15;;;;;;;31.17;62.07;99195.69;5158576;27;20137;-63
2023/06/08 06:14:55;;;;;;;5.90;3.10;;;;;;;31.31;61.01;99196.03;5157804;27;20151;-60
2023/06/08 06:17:22;;;;;;;26.83;4.10;;;;;;;31.26;60.40;99199.63;5158084;27;20058;-65
2023/06/08 06:19:48;;;;;;;11.32;3.45;;;;;;;31.25;60.72;99198.06;5157935;27;20122;-66
2023/06/08 06:22:15;;;;;;;7.85;3.78;;;;;;;30.86;60.83;99193.72;5158121;27;20180;-58
2023/06/08 06:24:41;;;;;;;14.25;4.07;;;;;;;31.54;59.49;99197.72;5158138;27;20111;-64
2023/06/08 06:27:07;;;;;;;6.55;2.88;;;;;;;31.10;60.12;99196.19;5158073;27;20046;-60
2023/06/08 06:29:33;;;;;;;9.07;3.35;;;;;;;31.69;58.86;99194.69;5158282;27;20046;-54
2023/06/08 06:31:59;;;;;;;9.45;3.72;;;;;;;31.84;58.57;99198.06;5158190;27;20141;-60
2023/06/08 06:34:25;;;;;;;7.97;3.40;;;;;;;32.05;58.85;99193.00;5158237;27;20047;-59
2023/06/08 06:36:51;;;;;;;9.98;3.63;;;;;;;32.03;58.79;99194.81;5158160;27;20050;-65
2023/06/08 06:39:18;;;;;;;14.10;3.53;;;;;;;31.99;57.89;99199.94;5158886;27;20058;-60
2023/06/08 06:41:44;;;;;;;7.43;3.88;;;;;;;31.50;58.14;99202.09;5157955;27;20390;-56
2023/06/08 06:44:10;;;;;;;10.32;3.17;;;;;;;31.61;58.39;99197.22;5158351;27;20050;-60
2023/06/08 06:46:36;;;;;;;8.18;3.28;;;;;;;31.80;59.45;99189.06;5157908;27;20054;-65
2023/06/08 06:49:02;;;;;;;4.78;3.03;;;;;;;31.76;58.20;99196.25;5158374;27;20459;-64
2023/06/08 06:51:29;;;;;;;10.82;3.63;;;;;;;32.18;57.34;99203.06;5157846;27;20429;-57
2023/06/08 06:53:55;;;;;;;9.48;3.08;;;;;;;32.01;58.23;99200.97;5157998;27;20141;-63
2023/06/08 06:56:21;;;;;;;8.23;3.63;;;;;;;32.14;57.90;99206.16;5157972;27;20141;-58
2023/06/08 06:58:47;;;;;;;5.82;3.20;;;;;;;32.42;57.18;99208.25;5157522;27;20058;-59
2023/06/08 07:01:13;;;;;;;9.10;2.88;;;;;;;32.53;57.16;99208.31;5157906;27;20058;-56
2023/06/08 07:03:43;;;;;;;8.48;3.08;;;;;;;32.17;55.91;99205.16;5157674;27;20377;-54
2023/06/08 07:06:09;;;;;;;4.53;3.15;;;;;;;32.33;56.33;99203.63;5158001;27;20107;-64
2023/06/08 07:08:35;;;;;;;16.17;3.80;;;;;;;32.92;56.47;99211.09;5157668;27;20055;-60
2023/06/08 07:11:01;;;;;;;6.38;3.15;;;;;;;33.00;55.54;99208.56;5157898;27;20164;-52
2023/06/08 07:13:27;;;;;;;4.88;2.92;;;;;;;32.80;54.94;99198.22;5157606;27;20047;-62
2023/06/08 07:15:54;;;;;;;9.68;3.38;;;;;;;33.22;54.73;99211.34;5158094;27;20146;-61
2023/06/08 07:18:20;;;;;;;7.07;2.90;;;;;;;32.89;55.63;99197.97;5157175;27;20054;-56
2023/06/08 07:20:46;;;;;;;5.45;3.50;;;;;;;32.50;55.71;99203.66;5157676;27;20309;-66
2023/06/08 07:23:12;;;;;;;9.55;3.28;;;;;;;32.33;55.74;99203.63;5157738;27;20378;-57
2023/06/08 07:25:39;;;;;;;5.60;3.00;;;;;;;31.93;56.64;99197.09;5157407;27;20047;-55
2023/06/08 07:28:05;;;;;;;7.22;3.00;;;;;;;31.85;57.41;99202.44;5160575;27;20055;-58
2023/06/08 07:30:31;;;;;;;6.40;3.40;;;;;;;31.91;57.18;99205.34;5161059;27;20118;-65
2023/06/08 07:32:57;;;;;;;7.78;3.20;;;;;;;32.33;56.23;99197.94;5161360;27;20050;-64
2023/06/08 07:35:23;;;;;;;8.80;3.58;;;;;;;32.43;56.30;99201.34;5160743;27;20058;-58
2023/06/08 07:37:49;;;;;;;9.35;3.08;;;;;;;32.52;57.29;99203.91;5161633;27;20095;-58
2023/06/08 07:40:17;;;;;;;8.43;3.20;;;;;;;32.99;55.73;99195.63;5161124;27;20336;-54
2023/06/08 07:42:44;;;;;;;9.18;3.20;;;;;;;33.04;54.40;99198.47;5161430;27;20057;-66
2023/06/08 07:45:11;;;;;;;5.97;3.30;;;;;;;33.39;53.76;99199.94;5160728;27;20046;-65
2023/06/08 07:47:37;;;;;;;6.25;3.65;;;;;;;33.47;54.63;99198.09;5161308;27;20119;-62
2023/06/08 07:50:03;;;;;;;5.30;3.17;;;;;;;33.00;54.41;99192.28;5160698;27;20353;-53
2023/06/08 07:52:29;;;;;;;11.10;3.15;;;;;;;32.72;54.00;99191.50;5160930;27;20121;-64
2023/06/08 07:54:55;;;;;;;7.35;3.20;;;;;;;33.31;54.24;99196.06;5160939;27;20046;-66
2023/06/08 07:57:20;;;;;;;8.43;2.88;;;;;;;33.25;53.98;99201.00;5160944;27;20078;-62
2023/06/08 07:59:47;;;;;;;22.38;4.95;;;;;;;33.26;52.89;99197.66;5162042;27;20122;-63
2023/06/08 08:02:13;;;;;;;13.65;3.83;;;;;;;33.49;53.71;99189.84;5161547;27;20469;-63
2023/06/08 08:04:39;;;;;;;10.05;6.93;;;;;;;33.73;53.50;99194.13;5160963;27;20082;-64
2023/06/08 08:07:05;;;;;;;8.43;4.10;;;;;;;33.86;53.29;99199.25;5160589;27;20082;-59
2023/06/08 08:09:31;;;;;;;5.65;3.13;;;;;;;33.93;52.33;99190.94;5160968;27;20176;-53
2023/06/08 08:11:57;;;;;;;6.82;3.28;;;;;;;33.83;52.48;99191.75;5160313;27;20137;-59
2023/06/08 08:14:23;;;;;;;9.38;3.47;;;;;;;33.74;52.77;99187.16;5160768;27;20301;-62
2023/06/08 08:16:50;;;;;;;5.07;3.30;;;;;;;34.31;52.77;99193.28;5160110;27;20333;-64
2023/06/08 08:19:16;;;;;;;16.17;3.83;;;;;;;32.63;54.87;99184.06;5160407;27;20061;-59
2023/06/08 08:21:42;;;;;;;9.73;3.70;;;;;;;32.31;54.98;99177.81;5160406;27;20139;-56
2023/06/08 08:24:09;;;;;;;201.88;23.30;;;;;;;33.10;55.19;99181.44;5160386;27;20174;-61
2023/06/08 08:26:35;;;;;;;31.55;5.30;;;;;;;33.35;53.67;99179.53;5160398;27;20042;-60
2023/06/08 08:29:01;;;;;;;113.85;17.10;;;;;;;33.49;54.23;99177.72;5160106;27;20107;-53
2023/06/08 08:31:26;;;;;;;12.52;4.30;;;;;;;34.09;52.11;99182.81;5160236;27;20107;-55
2023/06/08 08:33:53;;;;;;;7.88;3.10;;;;;;;34.00;51.52;99181.06;5160004;27;20107;-62
2023/06/08 08:36:19;;;;;;;351.40;44.20;;;;;;;33.34;52.71;99182.91;5160884;27;20046;-54
2023/06/08 08:38:45;;;;;;;61.60;8.02;;;;;;;33.25;52.01;99181.13;5160376;27;20377;-60
2023/06/08 08:41:12;;;;;;;25.30;4.47;;;;;;;34.00;52.09;99183.13;5160451;27;20142;-63
2023/06/08 08:43:47;;;;;;;10.07;3.15;;;;;;;34.45;51.67;99183.59;5160633;27;20412;-55
2023/06/08 08:46:14;;;;;;;5.63;3.20;;;;;;;33.85;52.26;99184.22;5161228;27;20093;-60
2023/06/08 08:48:42;;;;;;;9.70;3.28;;;;;;;33.82;52.73;99181.66;5160005;27;20293;-58
2023/06/08 08:51:12;;;;;;;9.45;3.05;;;;;;;34.18;52.06;99183.28;5159909;27;20051;-66
2023/06/08 08:53:40;;;;;;;7.00;2.95;;;;;;;33.78;51.73;99173.41;5159867;27;20076;-65
2023/06/08 08:56:07;;;;;;;10.00;3.00;;;;;;;34.09;52.11;99171.44;5159659;27;20043;-65
2023/06/08 08:58:33;;;;;;;6.75;3.10;;;;;;;34.00;51.05;99172.53;5159853;27;20118;-57
2023/06/08 09:01:02;;;;;;;4.10;2.83;;;;;;;33.98;51.65;99175.13;5159375;27;20115;-61
2023/06/08 09:03:28;;;;;;;10.35;3.88;;;;;;;34.04;51.84;99172.28;5159886;27;20435;-60
2023/06/08 09:05:55;;;;;;;6.38;3.47;;;;;;;33.98;51.40;99170.19;5159234;27;20086;-61
2023/06/08 09:08:23;;;;;;;6.57;3.15;;;;;;;33.02;52.12;99169.03;5159833;27;20382;-57
2023/06/08 09:11:01;;;;;;;6.68;3.17;;;;;;;32.56;53.49;99159.03;5159247;27;20149;-60
2023/06/08 09:13:27;;;;;;;5.30;3.10;;;;;;;33.49;52.95;99160.66;5159278;27;20439;-63
2023/06/08 09:15:53;;;;;;;6.47;3.13;;;;;;;33.83;51.57;99171.88;5159582;27;20293;-56
2023/06/08 09:18:19;;;;;;;6.70;3.50;;;;;;;33.74;51.39;99164.41;5159322;27;20046;-57
2023/06/08 09:20:46;;;;;;;9.82;3.47;;;;;;;34.26;51.25;99171.34;5159641;27;20073;-59
2023/06/08 09:23:15;;;;;;;5.05;3.08;;;;;;;33.80;51.50;99167.22;5159120;27;20061;-59
2023/06/08 09:25:42;;;;;;;12.18;3.30;;;;;;;33.54;51.80;99162.69;5159590;27;20046;-60
2023/06/08 09:28:18;;;;;;;4.15;3.30;;;;;;;32.72;52.95;99163.94;5159201;27;20093;-62
2023/06/08 09:30:45;;;;;;;5.88;2.95;;;;;;;33.23;51.34;99155.31;5159698;27;20050;-61
2023/06/08 09:33:21;;;;;;;6.03;3.25;;;;;;;33.67;51.09;99160.03;5159049;27;20141;-63
2023/06/08 09:35:48;;;;;;;5.40;3.30;;;;;;;32.88;50.75;99159.50;5159093;27;20042;-56
2023/06/08 09:38:18;;;;;;;6.03;3.13;;;;;;;33.63;51.14;99151.03;5159055;27;20137;-62
2023/06/08 09:40:46;;;;;;;5.65;3.42;;;;;;;33.83;49.49;99149.13;5159109;27;20050;-61
2023/06/08 09:43:11;;;;;;;6.05;3.28;;;;;;;33.86;50.22;99150.91;5158991;27;20420;-60
2023/06/08 09:45:43;;;;;;;7.68;3.10;;;;;;;32.92;51.12;99145.03;5158840;27;20050;-64
2023/06/08 09:48:10;;;;;;;4.68;3.22;;;;;;;33.99;50.94;99145.38;5159213;27;20058;-57
2023/06/08 09:50:37;;;;;;;4.85;3.08;;;;;;;33.91;51.08;99145.16;5157977;27;20366;-63
2023/06/08 09:53:05;;;;;;;10.55;3.50;;;;;;;33.04;51.45;99147.34;5159152;27;20051;-62
2023/06/08 09:55:33;;;;;;;9.35;3.45;;;;;;;33.01;51.35;99139.88;5158897;27;20047;-57
2023/06/08 09:58:01;;;;;;;6.32;2.92;;;;;;;32.90;51.94;99136.28;5158456;27;20141;-59
2023/06/08 10:00:29;;;;;;;8.25;3.50;;;;;;;32.17;51.97;99133.47;5158628;27;20043;-64
2023/06/08 10:03:08;;;;;;;8.80;4.00;;;;;;;32.57;50.58;99130.13;5158272;27;20476;-54
2023/06/08 10:05:36;;;;;;;5.38;3.70;;;;;;;32.70;49.79;99126.75;5158676;27;20069;-65
2023/06/08 10:08:05;;;;;;;7.25;3.88;;;;;;;32.88;51.34;99136.00;5158630;27;20478;-64
2023/06/08 10:10:36;;;;;;;4.50;2.90;;;;;;;32.91;52.00;99138.56;5158689;27;20078;-63
2023/06/08 10:13:04;;;;;;;8.20;3.25;;;;;;;32.73;52.13;99137.06;5158260;27;20130;-53
2023/06/08 10:15:31;;;;;;;9.43;3.60;;;;;;;33.33;51.75;99136.69;5158770;27;20133;-59
2023/06/08 10:17:59;;;;;;;18.15;3.78;;;;;;;33.11;51.58;99129.00;5158150;27;20345;-56
2023/06/08 10:20:25;;;;;;;8.60;3.22;;;;;;;33.05;51.59;99128.25;5158868;27;20323;-59
2023/06/08 10:22:52;;;;;;;3.90;3.40;;;;;;;31.79;52.39;99121.53;5158192;27;20164;-58
2023/06/08 10:25:19;;;;;;;8.20;3.40;;;;;;;32.55;52.36;99123.41;5158273;27;20137;-62
2023/06/08 10:27:49;;;;;;;21.98;4.30;;;;;;;32.43;51.38;99119.84;5158488;27;20476;-59
2023/06/08 10:30:27;;;;;;;6.18;3.53;;;;;;;32.76;51.14;99119.00;5158406;27;20299;-64
2023/06/08 10:32:55;;;;;;;10.50;3.15;;;;;;;33.08;50.65;99113.00;5158362;27;20047;-59
2023/06/08 10:35:21;;;;;;;8.93;3.42;;;;;;;33.04;50.87;99118.19;5157803;27;20047;-59
2023/06/08 10:37:48;;;;;;;7.20;3.63;;;;;;;33.10;50.58;99113.25;5158288;27;20107;-55
2023/06/08 10:40:14;;;;;;;6.68;3.38;;;;;;;33.41;51.26;99109.25;5158050;27;20050;-58
2023/06/08 10:42:51;;;;;;;6.22;3.13;;;;;;;32.92;51.21;99111.72;5158635;27;20386;-60
2023/06/08 10:45:31;;;;;;;3.80;3.08;;;;;;;33.02;51.80;99106.56;5157928;27;20095;-57
2023/06/08 10:48:02;;;;;;;9.90;3.53;;;;;;;31.48;51.80;99096.97;5158300;27;20517;-62
2023/06/08 10:50:30;;;;;;;5.80;3.63;;;;;;;31.81;52.17;99102.72;5158520;27;20062;-60
2023/06/08 10:52:58;;;;;;;7.93;3.65;;;;;;;31.48;52.50;99103.41;5158213;27;20058;-54
2023/06/08 10:55:25;;;;;;;8.70;3.97;;;;;;;31.67;52.70;99098.06;5158584;27;20086;-61
2023/06/08 10:57:52;;;;;;;5.20;3.42;;;;;;;31.48;52.72;99096.97;5158145;27;20047;-61
2023/06/08 11:00:42;;;;;;;6.68;3.67;;;;;;;31.34;52.65;99096.69;5158439;27;20084;-63
2023/06/08 11:03:11;;;;;;;3.50;3.20;;;;;;;31.02;52.70;99095.22;5156866;27;20408;-65
2023/06/08 11:05:38;;;;;;;6.35;3.70;;;;;;;30.82;52.14;99096.94;5158014;27;20129;-58
2023/06/08 11:08:07;;;;;;;9.07;4.55;;;;;;;30.59;52.38;99087.53;5158003;27;20196;-64
2023/06/08 11:10:33;;;;;;;9.48;4.63;;;;;;;29.93;53.77;99086.47;5157610;27;20058;-54
2023/06/08 11:13:04;;;;;;;9.30;4.28;;;;;;;29.29;55.09;99082.69;5157996;27;20142;-55
2023/06/08 11:15:31;;;;;;;7.03;4.30;;;;;;;29.57;53.92;99079.41;5157661;27;20054;-64
2023/06/08 11:17:58;;;;;;;10.23;4.00;;;;;;;29.70;55.51;99076.22;5158308;27;20110;-55
2023/06/08 11:20:24;;;;;;;8.90;3.97;;;;;;;28.17;58.05;99077.47;5157737;27;20069;-55
2023/06/08 11:22:51;;;;;;;6.63;4.35;;;;;;;29.10;56.17;99072.19;5158009;27;20043;-59
2023/06/08 11:25:18;;;;;;;6.88;4.28;;;;;;;29.07;56.17;99071.91;5157994;27;20540;-61
2023/06/08 11:27:45;;;;;;;9.02;4.25;;;;;;;29.48;55.90;99069.03;5158333;27;20099;-62
2023/06/08 11:30:16;;;;;;;12.10;4.05;;;;;;;29.57;56.09;99065.28;5157354;27;20051;-63